Antlers Park, Minnesota
Current Conditions -  °F | °C
As of 8:29 AM on Tuesday 21 Oct 2014 (Local Time) from KLVN Reporting Station
Moderate Fog Moderate Fog  
Wind Chill: 32°   Ceiling: 100
Heat Index: 32°   Visibility: 0mi
Dew Point: 32°   Wind: 0mph
Humidity: 100%   Direction: NA
Pressure: 30.19"   Gusts: NA
Location:  44.6349°N, 93.283°W
Report Text: KLVN 211329Z AUTO 00000KT M1/4SM FG OVC001 00/00 A3019 RMK AO2
Loading
Personal Weather Stations






























Interactive Weather Map New forecast layout! Learn more

10-Day Weather Forecast

Advertisements
Track Severe Weather on mobile